| time (UTC) | temp F | wind direction | speed MPH | gust MPH | rain 1hr in | rain 24hr in | rain mn in | humidity % | barometer mb |
| 20260510131512 | 67 | 136 | 0.0 | 1.0 | 0.00 | 0.00 | 0.00 | 48 | 1003.6 |
| 20260510130015 | 65 | 136 | 2.0 | 7.0 | 0.00 | 0.00 | 0.00 | 48 | 1003.3 |
| 20260510123003 | 64 | 136 | 4.0 | 7.0 | 0.00 | 0.00 | 0.00 | 46 | 1002.9 |
| 20260510121600 | 65 | 136 | 6.0 | 8.0 | 0.00 | 0.00 | 0.00 | 44 | 1002.7 |
| 20260510121502 | 65 | 136 | 6.0 | 8.0 | 0.00 | 0.00 | 0.00 | 44 | 1002.7 |
| 20260510120056 | 66 | 137 | 2.0 | 5.0 | 0.00 | 0.00 | 0.00 | 43 | 1002.5 |
| 20260510114656 | 66 | 138 | 3.0 | 5.0 | 0.00 | 0.00 | 0.00 | 42 | 1002.6 |
| 20260510113013 | 66 | 138 | 3.0 | 5.0 | 0.00 | 0.00 | 0.00 | 42 | 1002.3 |
| 20260510111507 | 66 | 138 | 3.0 | 7.0 | 0.00 | 0.00 | 0.00 | 40 | 1002.3 |
| 20260510110009 | 67 | 138 | 3.0 | 7.0 | 0.00 | 0.00 | 0.00 | 39 | 1002.3 |
| 20260510103055 | 68 | 141 | 5.0 | 8.0 | 0.00 | 0.00 | 0.00 | 36 | 1002.1 |
| 20260510101554 | 69 | 142 | 4.0 | 6.0 | 0.00 | 0.00 | 0.00 | 35 | 1001.9 |
| 20260510100053 | 69 | 142 | 3.0 | 5.0 | 0.00 | 0.00 | 0.00 | 34 | 1001.9 |
| 20260510094651 | 69 | 143 | 5.0 | 9.0 | 0.00 | 0.00 | 0.00 | 33 | 1001.8 |
| 20260510093050 | 70 | 144 | 5.0 | 9.0 | 0.00 | 0.00 | 0.00 | 32 | 1001.8 |
| 20260510091555 | 70 | 155 | 3.0 | 12.0 | 0.00 | 0.00 | 0.00 | 32 | 1001.9 |
| 20260510090059 | 71 | 158 | 9.0 | 12.0 | 0.00 | 0.00 | 0.00 | 30 | 1002.0 |
| 20260510084644 | 72 | 170 | 10.0 | 15.0 | 0.00 | 0.00 | 0.00 | 29 | 1002.0 |
| 20260510083043 | 72 | 174 | 11.0 | 15.0 | 0.00 | 0.00 | 0.00 | 29 | 1001.8 |
| 20260510081544 | 73 | 163 | 13.0 | 16.0 | 0.00 | 0.00 | 0.00 | 28 | 1001.6 |
| 20260510080037 | 74 | 161 | 14.0 | 19.0 | 0.00 | 0.00 | 0.00 | 27 | 1001.6 |
| 20260510074633 | 74 | 165 | 14.0 | 19.0 | 0.00 | 0.00 | 0.00 | 27 | 1001.7 |
| 20260510073038 | 74 | 164 | 14.0 | 18.0 | 0.00 | 0.00 | 0.00 | 27 | 1001.8 |
| 20260510071536 | 75 | 160 | 14.0 | 19.0 | 0.00 | 0.00 | 0.00 | 26 | 1001.9 |
| 20260510070028 | 76 | 159 | 15.0 | 20.0 | 0.00 | 0.00 | 0.00 | 25 | 1002.0 |
| 20260510064623 | 76 | 155 | 14.0 | 19.0 | 0.00 | 0.00 | 0.00 | 25 | 1002.2 |
| 20260510063024 | 76 | 165 | 15.0 | 20.0 | 0.00 | 0.00 | 0.00 | 25 | 1002.3 |
| 20260510061531 | 76 | 167 | 14.0 | 16.0 | 0.00 | 0.00 | 0.00 | 25 | 1002.3 |
| 20260510060026 | 77 | 168 | 15.0 | 19.0 | 0.00 | 0.00 | 0.00 | 25 | 1002.4 |
| 20260510054613 | 77 | 175 | 14.0 | 16.0 | 0.00 | 0.00 | 0.00 | 24 | 1002.4 |
| 20260510053021 | 77 | 171 | 14.0 | 20.0 | 0.00 | 0.00 | 0.00 | 24 | 1002.4 |
| 20260510051518 | 78 | 171 | 13.0 | 17.0 | 0.00 | 0.00 | 0.00 | 23 | 1002.3 |
| 20260510050016 | 79 | 147 | 15.0 | 18.0 | 0.00 | 0.00 | 0.00 | 22 | 1002.3 |
| 20260510044616 | 79 | 180 | 15.0 | 20.0 | 0.00 | 0.00 | 0.00 | 21 | 1002.4 |
| 20260510043009 | 79 | 171 | 18.0 | 25.0 | 0.00 | 0.00 | 0.00 | 19 | 1002.2 |
| 20260510041508 | 80 | 170 | 16.0 | 19.0 | 0.00 | 0.00 | 0.00 | 18 | 1002.2 |
| 20260510040008 | 81 | 167 | 16.0 | 23.0 | 0.00 | 0.00 | 0.00 | 16 | 1002.0 |
| 20260510034608 | 81 | 167 | 14.0 | 20.0 | 0.00 | 0.00 | 0.00 | 15 | 1001.9 |
| 20260510033020 | 82 | 170 | 12.0 | 17.0 | 0.00 | 0.00 | 0.00 | 15 | 1001.9 |
| 20260510031520 | 82 | 171 | 12.0 | 16.0 | 0.00 | 0.00 | 0.00 | 15 | 1001.9 |
| 20260510030011 | 83 | 165 | 11.0 | 17.0 | 0.00 | 0.00 | 0.00 | 14 | 1001.8 |
| 20260510024513 | 85 | 169 | 12.0 | 16.0 | 0.00 | 0.00 | 0.00 | 13 | 1001.7 |
| 20260510023011 | 85 | 177 | 11.0 | 13.0 | 0.00 | 0.00 | 0.00 | 13 | 1001.4 |
| 20260510021513 | 87 | 172 | 13.0 | 15.0 | 0.00 | 0.00 | 0.00 | 12 | 1001.3 |
| 20260510020006 | 87 | 171 | 11.0 | 12.0 | 0.00 | 0.00 | 0.00 | 12 | 1001.2 |
| 20260510014506 | 88 | 168 | 10.0 | 13.0 | 0.00 | 0.00 | 0.00 | 12 | 1001.0 |
| 20260510013005 | 89 | 175 | 9.0 | 12.0 | 0.00 | 0.00 | 0.00 | 11 | 1000.9 |
| 20260510011505 | 91 | 186 | 9.0 | 13.0 | 0.00 | 0.00 | 0.00 | 11 | 1000.8 |
| 20260510010059 | 91 | 191 | 8.0 | 12.0 | 0.00 | 0.00 | 0.00 | 10 | 1000.7 |
| 20260510004555 | 92 | 199 | 7.0 | 10.0 | 0.00 | 0.00 | 0.00 | 10 | 1000.7 |
| 20260510003057 | 93 | 197 | 7.0 | 10.0 | 0.00 | 0.00 | 0.00 | 10 | 1000.6 |
| 20260510001550 | 93 | 191 | 10.0 | 13.0 | 0.00 | 0.00 | 0.00 | 9 | 1000.7 |
| 20260510000114 | 93 | 162 | 8.0 | 12.0 | 0.00 | 0.00 | 0.00 | 9 | 1000.8 |
| 20260509234618 | 93 | 215 | 7.0 | 11.0 | 0.00 | 0.00 | 0.00 | 9 | 1000.9 |
| 20260509233059 | 93 | 200 | 6.0 | 14.0 | 0.00 | 0.00 | 0.00 | 9 | 1001.1 |
| 20260509231610 | 93 | 193 | 9.0 | 19.0 | 0.00 | 0.00 | 0.00 | 9 | 1001.1 |
| 20260509230105 | 94 | 189 | 3.0 | 9.0 | 0.00 | 0.00 | 0.00 | 10 | 1001.3 |
| 20260509224555 | 93 | 189 | 7.0 | 15.0 | 0.00 | 0.00 | 0.00 | 10 | 1001.4 |
| 20260509223052 | 93 | 202 | 10.0 | 16.0 | 0.00 | 0.00 | 0.00 | 10 | 1001.6 |
| 20260509221549 | 94 | 241 | 0.0 | 8.0 | 0.00 | 0.00 | 0.00 | 9 | 1001.7 |
| 20260509220046 | 94 | 269 | 8.0 | 23.0 | 0.00 | 0.00 | 0.00 | 10 | 1001.9 |
| 20260509214544 | 93 | 192 | 5.0 | 14.0 | 0.00 | 0.00 | 0.00 | 10 | 1002.1 |
| 20260509213045 | 93 | 165 | 6.0 | 11.0 | 0.00 | 0.00 | 0.00 | 11 | 1002.3 |
| 20260509211549 | 93 | 195 | 2.0 | 11.0 | 0.00 | 0.00 | 0.00 | 11 | 1002.6 |
| 20260509210056 | 92 | 231 | 4.0 | 16.0 | 0.00 | 0.00 | 0.00 | 11 | 1002.9 |
| 20260509204538 | 92 | 191 | 7.0 | 14.0 | 0.00 | 0.00 | 0.00 | 12 | 1003.3 |
| 20260509203042 | 92 | 210 | 9.0 | 17.0 | 0.00 | 0.00 | 0.00 | 13 | 1003.6 |
| 20260509201533 | 91 | 200 | 7.0 | 17.0 | 0.00 | 0.00 | 0.00 | 12 | 1003.9 |
| 20260509200050 | 90 | 194 | 13.0 | 18.0 | 0.00 | 0.00 | 0.00 | 13 | 1004.1 |
| 20260509194541 | 91 | 218 | 13.0 | 21.0 | 0.00 | 0.00 | 0.00 | 14 | 1004.4 |
| 20260509193044 | 89 | 213 | 10.0 | 19.0 | 0.00 | 0.00 | 0.00 | 14 | 1004.5 |
| 20260509191540 | 89 | 221 | 16.0 | 22.0 | 0.00 | 0.00 | 0.00 | 14 | 1004.7 |
| 20260509190036 | 88 | 196 | 14.0 | 22.0 | 0.00 | 0.00 | 0.00 | 15 | 1004.9 |
| 20260509184540 | 87 | 197 | 12.0 | 19.0 | 0.00 | 0.00 | 0.00 | 16 | 1005.1 |
| 20260509183032 | 87 | 221 | 13.0 | 21.0 | 0.00 | 0.00 | 0.00 | 16 | 1005.4 |
| 20260509181525 | 86 | 192 | 15.0 | 22.0 | 0.00 | 0.00 | 0.00 | 17 | 1005.6 |
| 20260509180024 | 86 | 196 | 16.0 | 22.0 | 0.00 | 0.00 | 0.00 | 18 | 1006.0 |
| 20260509174522 | 84 | 196 | 12.0 | 15.0 | 0.00 | 0.00 | 0.00 | 20 | 1006.3 |
| 20260509173028 | 85 | 182 | 11.0 | 17.0 | 0.00 | 0.00 | 0.00 | 20 | 1006.5 |
| 20260509171533 | 84 | 180 | 12.0 | 17.0 | 0.00 | 0.00 | 0.00 | 20 | 1006.5 |
| 20260509170019 | 82 | 202 | 9.0 | 18.0 | 0.00 | 0.00 | 0.00 | 23 | 1006.7 |
| 20260509164517 | 81 | 173 | 8.0 | 17.0 | 0.00 | 0.00 | 0.00 | 25 | 1006.8 |
| 20260509163107 | 80 | 174 | 12.0 | 17.0 | 0.00 | 0.00 | 0.00 | 25 | 1006.8 |
| 20260509163001 | 80 | 158 | 10.0 | 16.0 | 0.00 | 0.00 | 0.00 | 25 | 1006.9 |
| 20260509161559 | 79 | 206 | 10.0 | 14.0 | 0.00 | 0.00 | 0.00 | 27 | 1006.9 |
| 20260509160054 | 77 | 163 | 9.0 | 12.0 | 0.00 | 0.00 | 0.00 | 28 | 1007.0 |
| 20260509154605 | 76 | 173 | 8.0 | 10.0 | 0.00 | 0.00 | 0.00 | 30 | 1007.1 |
| 20260509153019 | 74 | 180 | 6.0 | 13.0 | 0.00 | 0.00 | 0.00 | 34 | 1007.1 |
| 20260509151506 | 73 | 173 | 8.0 | 10.0 | 0.00 | 0.00 | 0.00 | 36 | 1007.3 |
| 20260509150003 | 72 | 177 | 6.0 | 11.0 | 0.00 | 0.00 | 0.00 | 38 | 1007.3 |
| 20260509144503 | 71 | 180 | 8.0 | 13.0 | 0.00 | 0.00 | 0.00 | 39 | 1007.4 |
| 20260509143002 | 70 | 192 | 9.0 | 13.0 | 0.00 | 0.00 | 0.00 | 38 | 1007.2 |
| 20260509141505 | 70 | 189 | 9.0 | 11.0 | 0.00 | 0.00 | 0.00 | 38 | 1007.4 |
| 20260509140000 | 69 | 174 | 7.0 | 10.0 | 0.00 | 0.00 | 0.00 | 41 | 1007.5 |
| 20260509134602 | 66 | 149 | 5.0 | 10.0 | 0.00 | 0.00 | 0.00 | 47 | 1007.6 |
| 20260509133053 | 65 | 148 | 5.0 | 9.0 | 0.00 | 0.00 | 0.00 | 48 | 1007.4 |